sensor_id;sensor_type;location;lat;lon;timestamp;temperature;humidity
66190;DHT22;52992;52.084;5.412;2024-03-25T00:00:40;9.30;68.20
66190;DHT22;52992;52.084;5.412;2024-03-25T00:03:06;9.30;68.10
66190;DHT22;52992;52.084;5.412;2024-03-25T00:05:32;9.30;68.30
66190;DHT22;52992;52.084;5.412;2024-03-25T00:07:58;9.30;68.40
66190;DHT22;52992;52.084;5.412;2024-03-25T00:10:24;9.30;68.10
66190;DHT22;52992;52.084;5.412;2024-03-25T00:12:50;9.40;67.90
66190;DHT22;52992;52.084;5.412;2024-03-25T00:15:21;9.30;67.80
66190;DHT22;52992;52.084;5.412;2024-03-25T00:17:49;9.30;67.70
66190;DHT22;52992;52.084;5.412;2024-03-25T00:20:15;9.20;67.80
66190;DHT22;52992;52.084;5.412;2024-03-25T00:22:41;9.30;67.90
66190;DHT22;52992;52.084;5.412;2024-03-25T00:25:08;9.30;67.80
66190;DHT22;52992;52.084;5.412;2024-03-25T00:27:34;9.30;67.70
66190;DHT22;52992;52.084;5.412;2024-03-25T00:30:00;9.40;67.60
66190;DHT22;52992;52.084;5.412;2024-03-25T00:32:26;9.40;67.40
66190;DHT22;52992;52.084;5.412;2024-03-25T00:34:52;9.40;67.20
66190;DHT22;52992;52.084;5.412;2024-03-25T00:37:18;9.50;67.10
66190;DHT22;52992;52.084;5.412;2024-03-25T00:39:45;9.40;67.00
66190;DHT22;52992;52.084;5.412;2024-03-25T00:42:11;9.40;67.00
66190;DHT22;52992;52.084;5.412;2024-03-25T00:44:38;9.40;67.10
66190;DHT22;52992;52.084;5.412;2024-03-25T00:47:03;9.40;67.10
66190;DHT22;52992;52.084;5.412;2024-03-25T00:49:29;9.30;67.00
66190;DHT22;52992;52.084;5.412;2024-03-25T00:51:55;9.30;67.00
66190;DHT22;52992;52.084;5.412;2024-03-25T00:54:21;9.30;67.00
66190;DHT22;52992;52.084;5.412;2024-03-25T00:56:49;9.30;67.00
66190;DHT22;52992;52.084;5.412;2024-03-25T00:59:17;9.20;66.80
66190;DHT22;52992;52.084;5.412;2024-03-25T01:01:43;9.20;66.80
66190;DHT22;52992;52.084;5.412;2024-03-25T01:04:09;9.20;66.80
66190;DHT22;52992;52.084;5.412;2024-03-25T01:06:35;9.20;66.70
66190;DHT22;52992;52.084;5.412;2024-03-25T01:09:01;9.20;66.70
66190;DHT22;52992;52.084;5.412;2024-03-25T01:11:27;9.10;66.70
66190;DHT22;52992;52.084;5.412;2024-03-25T01:13:53;9.10;66.70
66190;DHT22;52992;52.084;5.412;2024-03-25T01:16:19;9.10;66.70
66190;DHT22;52992;52.084;5.412;2024-03-25T01:18:44;9.10;66.60
66190;DHT22;52992;52.084;5.412;2024-03-25T01:21:10;9.10;67.20
66190;DHT22;52992;52.084;5.412;2024-03-25T01:23:36;9.10;66.40
66190;DHT22;52992;52.084;5.412;2024-03-25T01:26:02;9.00;66.30
66190;DHT22;52992;52.084;5.412;2024-03-25T01:28:28;9.00;66.30
66190;DHT22;52992;52.084;5.412;2024-03-25T01:30:54;8.90;66.40
66190;DHT22;52992;52.084;5.412;2024-03-25T01:33:20;8.90;66.40
66190;DHT22;52992;52.084;5.412;2024-03-25T01:35:46;8.90;66.40
66190;DHT22;52992;52.084;5.412;2024-03-25T01:38:12;8.90;66.40
66190;DHT22;52992;52.084;5.412;2024-03-25T01:40:38;8.90;66.40
66190;DHT22;52992;52.084;5.412;2024-03-25T01:43:04;8.80;66.30
66190;DHT22;52992;52.084;5.412;2024-03-25T01:45:32;8.80;66.30
66190;DHT22;52992;52.084;5.412;2024-03-25T01:48:02;8.80;66.20
66190;DHT22;52992;52.084;5.412;2024-03-25T01:50:29;8.90;66.20
66190;DHT22;52992;52.084;5.412;2024-03-25T01:52:56;8.80;66.20
66190;DHT22;52992;52.084;5.412;2024-03-25T01:55:25;8.80;66.30
66190;DHT22;52992;52.084;5.412;2024-03-25T01:57:52;8.80;66.20
66190;DHT22;52992;52.084;5.412;2024-03-25T02:00:18;8.80;66.20
66190;DHT22;52992;52.084;5.412;2024-03-25T02:02:48;8.80;66.20
66190;DHT22;52992;52.084;5.412;2024-03-25T02:05:15;8.80;66.20
66190;DHT22;52992;52.084;5.412;2024-03-25T02:07:42;8.70;66.20
66190;DHT22;52992;52.084;5.412;2024-03-25T02:10:09;8.70;66.30
66190;DHT22;52992;52.084;5.412;2024-03-25T02:12:42;8.70;66.40
66190;DHT22;52992;52.084;5.412;2024-03-25T02:15:09;8.70;66.50
66190;DHT22;52992;52.084;5.412;2024-03-25T02:17:36;8.60;66.30
66190;DHT22;52992;52.084;5.412;2024-03-25T02:20:02;8.70;66.40
66190;DHT22;52992;52.084;5.412;2024-03-25T02:22:29;8.70;66.40
66190;DHT22;52992;52.084;5.412;2024-03-25T02:24:57;8.70;66.40
66190;DHT22;52992;52.084;5.412;2024-03-25T02:27:27;8.70;66.50
66190;DHT22;52992;52.084;5.412;2024-03-25T02:30:08;8.70;66.40
66190;DHT22;52992;52.084;5.412;2024-03-25T02:32:35;8.70;66.40
66190;DHT22;52992;52.084;5.412;2024-03-25T02:35:03;8.60;66.20
66190;DHT22;52992;52.084;5.412;2024-03-25T02:37:30;8.60;66.30
66190;DHT22;52992;52.084;5.412;2024-03-25T02:39:58;8.60;66.30
66190;DHT22;52992;52.084;5.412;2024-03-25T02:42:25;8.60;66.10
66190;DHT22;52992;52.084;5.412;2024-03-25T02:44:57;8.60;66.10
66190;DHT22;52992;52.084;5.412;2024-03-25T02:47:24;8.60;66.10
66190;DHT22;52992;52.084;5.412;2024-03-25T02:49:50;8.60;66.10
66190;DHT22;52992;52.084;5.412;2024-03-25T02:52:18;8.60;66.00
66190;DHT22;52992;52.084;5.412;2024-03-25T02:54:44;8.60;66.70
66190;DHT22;52992;52.084;5.412;2024-03-25T02:57:10;8.60;65.90
66190;DHT22;52992;52.084;5.412;2024-03-25T02:59:36;8.60;65.80
66190;DHT22;52992;52.084;5.412;2024-03-25T03:02:02;8.60;65.70
66190;DHT22;52992;52.084;5.412;2024-03-25T03:04:29;8.60;65.70
66190;DHT22;52992;52.084;5.412;2024-03-25T03:06:56;8.60;65.60
66190;DHT22;52992;52.084;5.412;2024-03-25T03:09:22;8.60;65.40
66190;DHT22;52992;52.084;5.412;2024-03-25T03:11:48;8.60;65.40
66190;DHT22;52992;52.084;5.412;2024-03-25T03:14:14;8.60;65.30
66190;DHT22;52992;52.084;5.412;2024-03-25T03:16:40;8.60;66.00
66190;DHT22;52992;52.084;5.412;2024-03-25T03:19:06;8.60;65.30
66190;DHT22;52992;52.084;5.412;2024-03-25T03:21:32;8.60;66.00
66190;DHT22;52992;52.084;5.412;2024-03-25T03:23:58;8.50;65.20
66190;DHT22;52992;52.084;5.412;2024-03-25T03:26:24;8.60;65.20
66190;DHT22;52992;52.084;5.412;2024-03-25T03:28:55;8.60;65.20
66190;DHT22;52992;52.084;5.412;2024-03-25T03:31:22;8.50;65.30
66190;DHT22;52992;52.084;5.412;2024-03-25T03:33:48;8.50;65.20
66190;DHT22;52992;52.084;5.412;2024-03-25T03:36:18;8.50;65.30
66190;DHT22;52992;52.084;5.412;2024-03-25T03:38:45;8.50;65.20
66190;DHT22;52992;52.084;5.412;2024-03-25T03:41:11;8.50;65.20
66190;DHT22;52992;52.084;5.412;2024-03-25T03:43:37;8.50;65.20
66190;DHT22;52992;52.084;5.412;2024-03-25T03:46:03;8.50;65.20
66190;DHT22;52992;52.084;5.412;2024-03-25T03:48:30;8.50;65.10
66190;DHT22;52992;52.084;5.412;2024-03-25T03:50:56;8.50;65.10
66190;DHT22;52992;52.084;5.412;2024-03-25T03:53:23;8.40;65.00
66190;DHT22;52992;52.084;5.412;2024-03-25T03:56:03;8.40;64.80
66190;DHT22;52992;52.084;5.412;2024-03-25T03:58:31;8.40;64.80
66190;DHT22;52992;52.084;5.412;2024-03-25T04:00:58;8.40;64.90
66190;DHT22;52992;52.084;5.412;2024-03-25T04:03:24;8.40;64.90
66190;DHT22;52992;52.084;5.412;2024-03-25T04:05:50;8.30;64.90
66190;DHT22;52992;52.084;5.412;2024-03-25T04:08:16;8.30;64.90
66190;DHT22;52992;52.084;5.412;2024-03-25T04:10:45;8.30;64.90
66190;DHT22;52992;52.084;5.412;2024-03-25T04:13:11;8.30;64.90
66190;DHT22;52992;52.084;5.412;2024-03-25T04:15:39;8.30;64.80
66190;DHT22;52992;52.084;5.412;2024-03-25T04:18:06;8.30;64.90
66190;DHT22;52992;52.084;5.412;2024-03-25T04:20:39;8.30;64.90
66190;DHT22;52992;52.084;5.412;2024-03-25T04:23:05;8.20;64.80
66190;DHT22;52992;52.084;5.412;2024-03-25T04:25:34;8.30;64.90
66190;DHT22;52992;52.084;5.412;2024-03-25T04:28:03;8.30;64.90
66190;DHT22;52992;52.084;5.412;2024-03-25T04:30:30;8.30;64.90
66190;DHT22;52992;52.084;5.412;2024-03-25T04:32:55;8.30;64.90
66190;DHT22;52992;52.084;5.412;2024-03-25T04:35:21;8.20;64.80
66190;DHT22;52992;52.084;5.412;2024-03-25T04:37:47;8.30;64.80
66190;DHT22;52992;52.084;5.412;2024-03-25T04:40:14;8.20;64.70
66190;DHT22;52992;52.084;5.412;2024-03-25T04:42:41;8.20;64.70
66190;DHT22;52992;52.084;5.412;2024-03-25T04:45:07;8.20;64.60
66190;DHT22;52992;52.084;5.412;2024-03-25T04:47:33;8.20;64.50
66190;DHT22;52992;52.084;5.412;2024-03-25T04:49:59;8.20;64.60
66190;DHT22;52992;52.084;5.412;2024-03-25T04:52:25;8.20;64.60
66190;DHT22;52992;52.084;5.412;2024-03-25T04:54:51;8.20;64.60
66190;DHT22;52992;52.084;5.412;2024-03-25T04:57:17;8.20;64.60
66190;DHT22;52992;52.084;5.412;2024-03-25T04:59:44;8.20;64.50
66190;DHT22;52992;52.084;5.412;2024-03-25T05:02:10;8.20;64.60
66190;DHT22;52992;52.084;5.412;2024-03-25T05:04:36;8.20;64.60
66190;DHT22;52992;52.084;5.412;2024-03-25T05:07:02;8.10;64.70
66190;DHT22;52992;52.084;5.412;2024-03-25T05:09:28;8.20;64.60
66190;DHT22;52992;52.084;5.412;2024-03-25T05:11:54;8.20;64.60
66190;DHT22;52992;52.084;5.412;2024-03-25T05:14:20;8.10;64.50
66190;DHT22;52992;52.084;5.412;2024-03-25T05:16:45;8.10;64.50
66190;DHT22;52992;52.084;5.412;2024-03-25T05:19:11;8.10;64.40
66190;DHT22;52992;52.084;5.412;2024-03-25T05:21:37;8.20;64.40
66190;DHT22;52992;52.084;5.412;2024-03-25T05:24:03;8.10;64.40
66190;DHT22;52992;52.084;5.412;2024-03-25T05:26:29;8.10;64.40
66190;DHT22;52992;52.084;5.412;2024-03-25T05:28:56;8.00;64.40
66190;DHT22;52992;52.084;5.412;2024-03-25T05:31:23;8.00;64.50
66190;DHT22;52992;52.084;5.412;2024-03-25T05:33:50;8.00;64.50
66190;DHT22;52992;52.084;5.412;2024-03-25T05:36:16;8.10;64.50
66190;DHT22;52992;52.084;5.412;2024-03-25T05:38:42;8.10;64.50
66190;DHT22;52992;52.084;5.412;2024-03-25T05:41:09;8.00;64.40
66190;DHT22;52992;52.084;5.412;2024-03-25T05:43:35;8.10;64.60
66190;DHT22;52992;52.084;5.412;2024-03-25T05:46:02;8.10;64.60
66190;DHT22;52992;52.084;5.412;2024-03-25T05:48:28;8.10;64.70
66190;DHT22;52992;52.084;5.412;2024-03-25T05:51:06;8.10;64.60
66190;DHT22;52992;52.084;5.412;2024-03-25T05:53:33;8.20;65.30
66190;DHT22;52992;52.084;5.412;2024-03-25T05:56:00;8.20;64.60
66190;DHT22;52992;52.084;5.412;2024-03-25T05:58:26;8.30;64.70
66190;DHT22;52992;52.084;5.412;2024-03-25T06:00:53;8.20;64.60
66190;DHT22;52992;52.084;5.412;2024-03-25T06:03:19;8.30;64.60
66190;DHT22;52992;52.084;5.412;2024-03-25T06:05:46;8.30;64.50
66190;DHT22;52992;52.084;5.412;2024-03-25T06:08:12;8.40;64.40
66190;DHT22;52992;52.084;5.412;2024-03-25T06:10:53;8.40;64.30
66190;DHT22;52992;52.084;5.412;2024-03-25T06:13:19;8.40;64.20
66190;DHT22;52992;52.084;5.412;2024-03-25T06:15:46;8.40;64.20
66190;DHT22;52992;52.084;5.412;2024-03-25T06:18:12;8.50;64.30
66190;DHT22;52992;52.084;5.412;2024-03-25T06:20:38;8.50;64.30
66190;DHT22;52992;52.084;5.412;2024-03-25T06:23:04;8.60;64.20
66190;DHT22;52992;52.084;5.412;2024-03-25T06:25:30;8.70;64.10
66190;DHT22;52992;52.084;5.412;2024-03-25T06:27:56;8.70;64.10
66190;DHT22;52992;52.084;5.412;2024-03-25T06:30:22;8.80;63.90
66190;DHT22;52992;52.084;5.412;2024-03-25T06:33:06;9.00;64.10
66190;DHT22;52992;52.084;5.412;2024-03-25T06:35:51;9.00;63.90
66190;DHT22;52992;52.084;5.412;2024-03-25T06:38:18;9.20;63.80
66190;DHT22;52992;52.084;5.412;2024-03-25T06:40:45;9.30;63.80
66190;DHT22;52992;52.084;5.412;2024-03-25T06:43:11;9.40;63.50
66190;DHT22;52992;52.084;5.412;2024-03-25T06:45:37;9.50;63.50
66190;DHT22;52992;52.084;5.412;2024-03-25T06:48:03;9.60;63.40
66190;DHT22;52992;52.084;5.412;2024-03-25T06:50:30;9.70;63.30
66190;DHT22;52992;52.084;5.412;2024-03-25T06:52:56;9.90;63.20
66190;DHT22;52992;52.084;5.412;2024-03-25T06:55:21;10.00;63.10
66190;DHT22;52992;52.084;5.412;2024-03-25T06:57:53;10.20;63.30
66190;DHT22;52992;52.084;5.412;2024-03-25T07:00:19;10.40;63.40
66190;DHT22;52992;52.084;5.412;2024-03-25T07:02:48;10.60;63.70
66190;DHT22;52992;52.084;5.412;2024-03-25T07:05:14;10.80;64.20
66190;DHT22;52992;52.084;5.412;2024-03-25T07:07:40;11.00;64.80
66190;DHT22;52992;52.084;5.412;2024-03-25T07:10:07;11.30;65.30
66190;DHT22;52992;52.084;5.412;2024-03-25T07:12:32;11.70;65.30
66190;DHT22;52992;52.084;5.412;2024-03-25T07:14:58;12.20;64.90
66190;DHT22;52992;52.084;5.412;2024-03-25T07:17:24;12.60;65.30
66190;DHT22;52992;52.084;5.412;2024-03-25T07:19:51;13.00;63.90
66190;DHT22;52992;52.084;5.412;2024-03-25T07:22:18;13.40;63.60
66190;DHT22;52992;52.084;5.412;2024-03-25T07:24:44;13.60;63.30
66190;DHT22;52992;52.084;5.412;2024-03-25T07:27:10;13.90;63.00
66190;DHT22;52992;52.084;5.412;2024-03-25T07:29:37;14.20;62.90
66190;DHT22;52992;52.084;5.412;2024-03-25T07:32:03;14.40;62.50
66190;DHT22;52992;52.084;5.412;2024-03-25T07:34:30;14.60;62.50
66190;DHT22;52992;52.084;5.412;2024-03-25T07:36:56;14.90;62.40
66190;DHT22;52992;52.084;5.412;2024-03-25T07:39:21;15.10;62.20
66190;DHT22;52992;52.084;5.412;2024-03-25T07:41:50;15.40;61.80
66190;DHT22;52992;52.084;5.412;2024-03-25T07:44:16;15.60;61.30
66190;DHT22;52992;52.084;5.412;2024-03-25T07:46:42;15.80;60.50
66190;DHT22;52992;52.084;5.412;2024-03-25T07:49:07;16.10;60.20
66190;DHT22;52992;52.084;5.412;2024-03-25T07:51:34;16.30;60.00
66190;DHT22;52992;52.084;5.412;2024-03-25T07:54:01;16.60;59.60
66190;DHT22;52992;52.084;5.412;2024-03-25T07:56:29;16.90;58.80
66190;DHT22;52992;52.084;5.412;2024-03-25T07:58:56;17.10;58.20
66190;DHT22;52992;52.084;5.412;2024-03-25T08:01:25;17.40;57.60
66190;DHT22;52992;52.084;5.412;2024-03-25T08:03:51;17.70;57.00
66190;DHT22;52992;52.084;5.412;2024-03-25T08:06:17;18.00;56.40
66190;DHT22;52992;52.084;5.412;2024-03-25T08:08:43;18.20;55.50
66190;DHT22;52992;52.084;5.412;2024-03-25T08:11:09;18.40;54.80
66190;DHT22;52992;52.084;5.412;2024-03-25T08:13:35;18.50;53.20
66190;DHT22;52992;52.084;5.412;2024-03-25T08:16:00;18.70;53.20
66190;DHT22;52992;52.084;5.412;2024-03-25T08:18:26;18.80;52.30
66190;DHT22;52992;52.084;5.412;2024-03-25T08:20:52;19.00;51.60
66190;DHT22;52992;52.084;5.412;2024-03-25T08:23:18;19.10;51.60
66190;DHT22;52992;52.084;5.412;2024-03-25T08:25:44;19.20;52.30
66190;DHT22;52992;52.084;5.412;2024-03-25T08:28:10;19.50;50.90
66190;DHT22;52992;52.084;5.412;2024-03-25T08:30:36;19.80;49.40
66190;DHT22;52992;52.084;5.412;2024-03-25T08:33:02;20.20;48.20
66190;DHT22;52992;52.084;5.412;2024-03-25T08:35:28;20.60;46.30
66190;DHT22;52992;52.084;5.412;2024-03-25T08:37:54;20.80;44.30
66190;DHT22;52992;52.084;5.412;2024-03-25T08:40:20;21.10;44.00
66190;DHT22;52992;52.084;5.412;2024-03-25T08:42:46;21.50;42.30
66190;DHT22;52992;52.084;5.412;2024-03-25T08:45:12;22.00;40.10
66190;DHT22;52992;52.084;5.412;2024-03-25T08:47:38;21.80;39.50
66190;DHT22;52992;52.084;5.412;2024-03-25T08:50:06;21.90;39.30
66190;DHT22;52992;52.084;5.412;2024-03-25T08:52:32;21.90;39.50
66190;DHT22;52992;52.084;5.412;2024-03-25T08:54:58;21.70;39.80
66190;DHT22;52992;52.084;5.412;2024-03-25T08:57:24;20.80;38.50
66190;DHT22;52992;52.084;5.412;2024-03-25T08:59:50;19.80;42.60
66190;DHT22;52992;52.084;5.412;2024-03-25T09:02:16;19.50;44.60
66190;DHT22;52992;52.084;5.412;2024-03-25T09:04:42;19.50;44.80
66190;DHT22;52992;52.084;5.412;2024-03-25T09:07:08;19.90;42.70
66190;DHT22;52992;52.084;5.412;2024-03-25T09:09:34;20.30;41.30
66190;DHT22;52992;52.084;5.412;2024-03-25T09:12:19;20.70;39.90
66190;DHT22;52992;52.084;5.412;2024-03-25T09:14:44;21.10;39.30
66190;DHT22;52992;52.084;5.412;2024-03-25T09:17:11;21.50;37.20
66190;DHT22;52992;52.084;5.412;2024-03-25T09:19:38;22.10;36.00
66190;DHT22;52992;52.084;5.412;2024-03-25T09:22:04;22.60;34.50
66190;DHT22;52992;52.084;5.412;2024-03-25T09:24:30;22.10;34.60
66190;DHT22;52992;52.084;5.412;2024-03-25T09:26:57;21.50;34.10
66190;DHT22;52992;52.084;5.412;2024-03-25T09:29:23;21.70;34.20
66190;DHT22;52992;52.084;5.412;2024-03-25T09:31:49;21.60;34.50
66190;DHT22;52992;52.084;5.412;2024-03-25T09:34:15;20.60;36.50
66190;DHT22;52992;52.084;5.412;2024-03-25T09:36:40;19.80;38.30
66190;DHT22;52992;52.084;5.412;2024-03-25T09:39:07;19.40;39.40
66190;DHT22;52992;52.084;5.412;2024-03-25T09:41:35;19.90;38.20
66190;DHT22;52992;52.084;5.412;2024-03-25T09:44:03;21.20;34.80
66190;DHT22;52992;52.084;5.412;2024-03-25T09:46:31;21.90;33.90
66190;DHT22;52992;52.084;5.412;2024-03-25T09:48:59;22.60;32.20
66190;DHT22;52992;52.084;5.412;2024-03-25T09:51:25;24.00;29.70
66190;DHT22;52992;52.084;5.412;2024-03-25T09:53:51;25.60;26.80
66190;DHT22;52992;52.084;5.412;2024-03-25T09:56:17;26.70;25.60
66190;DHT22;52992;52.084;5.412;2024-03-25T09:58:44;27.10;23.50
66190;DHT22;52992;52.084;5.412;2024-03-25T10:01:10;26.50;24.10
66190;DHT22;52992;52.084;5.412;2024-03-25T10:03:36;27.20;24.60
66190;DHT22;52992;52.084;5.412;2024-03-25T10:06:02;28.20;23.10
66190;DHT22;52992;52.084;5.412;2024-03-25T10:08:28;28.80;23.10
66190;DHT22;52992;52.084;5.412;2024-03-25T10:10:56;29.20;22.40
66190;DHT22;52992;52.084;5.412;2024-03-25T10:13:22;29.30;22.50
66190;DHT22;52992;52.084;5.412;2024-03-25T10:15:49;29.00;22.40
66190;DHT22;52992;52.084;5.412;2024-03-25T10:18:16;28.50;22.90
66190;DHT22;52992;52.084;5.412;2024-03-25T10:20:52;27.90;22.90
66190;DHT22;52992;52.084;5.412;2024-03-25T10:23:23;26.70;23.50
66190;DHT22;52992;52.084;5.412;2024-03-25T10:25:53;25.80;23.90
66190;DHT22;52992;52.084;5.412;2024-03-25T10:28:19;24.80;26.30
66190;DHT22;52992;52.084;5.412;2024-03-25T10:30:45;24.10;27.10
66190;DHT22;52992;52.084;5.412;2024-03-25T10:33:11;23.10;28.60
66190;DHT22;52992;52.084;5.412;2024-03-25T10:35:38;22.10;30.40
66190;DHT22;52992;52.084;5.412;2024-03-25T10:38:10;21.00;31.20
66190;DHT22;52992;52.084;5.412;2024-03-25T10:40:38;20.60;33.10
66190;DHT22;52992;52.084;5.412;2024-03-25T10:43:08;22.70;29.60
66190;DHT22;52992;52.084;5.412;2024-03-25T10:45:42;23.10;29.20
66190;DHT22;52992;52.084;5.412;2024-03-25T10:48:15;22.00;30.70
66190;DHT22;52992;52.084;5.412;2024-03-25T10:50:43;21.00;33.00
66190;DHT22;52992;52.084;5.412;2024-03-25T10:53:14;20.10;33.20
66190;DHT22;52992;52.084;5.412;2024-03-25T10:55:45;19.90;34.20
66190;DHT22;52992;52.084;5.412;2024-03-25T10:58:15;21.30;31.60
66190;DHT22;52992;52.084;5.412;2024-03-25T11:00:43;22.60;29.70
66190;DHT22;52992;52.084;5.412;2024-03-25T11:03:10;22.90;28.40
66190;DHT22;52992;52.084;5.412;2024-03-25T11:05:37;22.60;29.40
66190;DHT22;52992;52.084;5.412;2024-03-25T11:08:13;23.20;28.80
66190;DHT22;52992;52.084;5.412;2024-03-25T11:10:44;23.30;27.80
66190;DHT22;52992;52.084;5.412;2024-03-25T11:13:18;22.40;28.60
66190;DHT22;52992;52.084;5.412;2024-03-25T11:15:47;22.60;29.00
66190;DHT22;52992;52.084;5.412;2024-03-25T11:18:14;23.50;27.80
66190;DHT22;52992;52.084;5.412;2024-03-25T11:20:41;24.10;26.40
66190;DHT22;52992;52.084;5.412;2024-03-25T11:23:14;24.90;25.40
66190;DHT22;52992;52.084;5.412;2024-03-25T11:25:41;24.50;24.90
66190;DHT22;52992;52.084;5.412;2024-03-25T11:28:09;22.70;27.00
66190;DHT22;52992;52.084;5.412;2024-03-25T11:30:36;21.20;30.00
66190;DHT22;52992;52.084;5.412;2024-03-25T11:33:03;20.00;32.00
66190;DHT22;52992;52.084;5.412;2024-03-25T11:35:40;19.40;34.20
66190;DHT22;52992;52.084;5.412;2024-03-25T11:38:06;19.40;35.20
66190;DHT22;52992;52.084;5.412;2024-03-25T11:40:32;20.80;32.60
66190;DHT22;52992;52.084;5.412;2024-03-25T11:42:58;21.50;28.50
66190;DHT22;52992;52.084;5.412;2024-03-25T11:45:24;20.70;30.10
66190;DHT22;52992;52.084;5.412;2024-03-25T11:47:50;20.80;30.10
66190;DHT22;52992;52.084;5.412;2024-03-25T11:50:18;21.90;29.00
66190;DHT22;52992;52.084;5.412;2024-03-25T11:52:45;23.40;26.70
66190;DHT22;52992;52.084;5.412;2024-03-25T11:55:19;22.10;26.80
66190;DHT22;52992;52.084;5.412;2024-03-25T11:57:55;20.40;29.10
66190;DHT22;52992;52.084;5.412;2024-03-25T12:00:22;19.00;32.40
66190;DHT22;52992;52.084;5.412;2024-03-25T12:02:48;18.20;34.60
66190;DHT22;52992;52.084;5.412;2024-03-25T12:05:16;18.30;35.20
66190;DHT22;52992;52.084;5.412;2024-03-25T12:07:42;20.30;33.00
66190;DHT22;52992;52.084;5.412;2024-03-25T12:10:08;24.60;26.10
66190;DHT22;52992;52.084;5.412;2024-03-25T12:12:53;25.10;24.80
66190;DHT22;52992;52.084;5.412;2024-03-25T12:15:22;23.60;25.00
66190;DHT22;52992;52.084;5.412;2024-03-25T12:17:49;22.30;27.70
66190;DHT22;52992;52.084;5.412;2024-03-25T12:20:17;22.00;28.40
66190;DHT22;52992;52.084;5.412;2024-03-25T12:22:44;24.00;25.30
66190;DHT22;52992;52.084;5.412;2024-03-25T12:25:10;26.50;23.00
66190;DHT22;52992;52.084;5.412;2024-03-25T12:27:37;28.40;21.30
66190;DHT22;52992;52.084;5.412;2024-03-25T12:30:06;29.20;20.90
66190;DHT22;52992;52.084;5.412;2024-03-25T12:35:13;28.10;20.10
66190;DHT22;52992;52.084;5.412;2024-03-25T12:37:40;25.90;23.20
66190;DHT22;52992;52.084;5.412;2024-03-25T12:40:09;23.90;24.90
66190;DHT22;52992;52.084;5.412;2024-03-25T12:42:36;22.50;27.00
66190;DHT22;52992;52.084;5.412;2024-03-25T12:45:02;24.20;24.30
66190;DHT22;52992;52.084;5.412;2024-03-25T12:47:29;26.60;21.90
66190;DHT22;52992;52.084;5.412;2024-03-25T12:49:56;27.80;21.40
66190;DHT22;52992;52.084;5.412;2024-03-25T12:52:22;27.60;21.30
66190;DHT22;52992;52.084;5.412;2024-03-25T12:54:48;27.50;21.60
66190;DHT22;52992;52.084;5.412;2024-03-25T12:57:14;25.80;21.90
66190;DHT22;52992;52.084;5.412;2024-03-25T12:59:40;24.90;23.10
66190;DHT22;52992;52.084;5.412;2024-03-25T13:02:09;25.10;22.00
66190;DHT22;52992;52.084;5.412;2024-03-25T13:04:36;25.90;22.80
66190;DHT22;52992;52.084;5.412;2024-03-25T13:07:07;26.50;22.40
66190;DHT22;52992;52.084;5.412;2024-03-25T13:09:33;24.80;22.50
66190;DHT22;52992;52.084;5.412;2024-03-25T13:11:59;22.90;24.90
66190;DHT22;52992;52.084;5.412;2024-03-25T13:14:25;21.30;26.70
66190;DHT22;52992;52.084;5.412;2024-03-25T13:16:51;20.30;28.80
66190;DHT22;52992;52.084;5.412;2024-03-25T13:19:17;20.60;28.70
66190;DHT22;52992;52.084;5.412;2024-03-25T13:21:44;21.50;27.50
66190;DHT22;52992;52.084;5.412;2024-03-25T13:24:10;21.20;28.50
66190;DHT22;52992;52.084;5.412;2024-03-25T13:26:36;20.90;29.00
66190;DHT22;52992;52.084;5.412;2024-03-25T13:29:02;21.70;26.30
66190;DHT22;52992;52.084;5.412;2024-03-25T13:31:28;22.30;25.40
66190;DHT22;52992;52.084;5.412;2024-03-25T13:33:54;22.80;23.70
66190;DHT22;52992;52.084;5.412;2024-03-25T13:36:20;21.60;25.60
66190;DHT22;52992;52.084;5.412;2024-03-25T13:38:46;20.40;27.60
66190;DHT22;52992;52.084;5.412;2024-03-25T13:41:17;19.40;27.40
66190;DHT22;52992;52.084;5.412;2024-03-25T13:43:47;18.50;28.40
66190;DHT22;52992;52.084;5.412;2024-03-25T13:46:13;18.10;30.60
66190;DHT22;52992;52.084;5.412;2024-03-25T13:48:39;18.70;31.00
66190;DHT22;52992;52.084;5.412;2024-03-25T13:51:05;19.30;30.80
66190;DHT22;52992;52.084;5.412;2024-03-25T13:53:31;20.30;29.60
66190;DHT22;52992;52.084;5.412;2024-03-25T13:55:58;21.30;25.90
66190;DHT22;52992;52.084;5.412;2024-03-25T13:58:25;21.60;25.20
66190;DHT22;52992;52.084;5.412;2024-03-25T14:00:51;21.70;25.00
66190;DHT22;52992;52.084;5.412;2024-03-25T14:03:17;21.70;25.10
66190;DHT22;52992;52.084;5.412;2024-03-25T14:05:44;21.20;25.80
66190;DHT22;52992;52.084;5.412;2024-03-25T14:08:10;21.30;26.10
66190;DHT22;52992;52.084;5.412;2024-03-25T14:10:36;21.30;25.50
66190;DHT22;52992;52.084;5.412;2024-03-25T14:13:02;21.00;26.20
66190;DHT22;52992;52.084;5.412;2024-03-25T14:15:29;21.40;25.40
66190;DHT22;52992;52.084;5.412;2024-03-25T14:17:55;21.60;24.60
66190;DHT22;52992;52.084;5.412;2024-03-25T14:20:21;20.90;25.50
66190;DHT22;52992;52.084;5.412;2024-03-25T14:22:47;20.00;27.40
66190;DHT22;52992;52.084;5.412;2024-03-25T14:25:13;19.70;28.70
66190;DHT22;52992;52.084;5.412;2024-03-25T14:27:40;19.70;27.80
66190;DHT22;52992;52.084;5.412;2024-03-25T14:30:07;19.20;26.30
66190;DHT22;52992;52.084;5.412;2024-03-25T14:32:35;18.50;27.50
66190;DHT22;52992;52.084;5.412;2024-03-25T14:35:02;17.90;28.70
66190;DHT22;52992;52.084;5.412;2024-03-25T14:37:28;17.40;28.70
66190;DHT22;52992;52.084;5.412;2024-03-25T14:39:54;17.00;29.10
66190;DHT22;52992;52.084;5.412;2024-03-25T14:42:20;16.70;30.00
66190;DHT22;52992;52.084;5.412;2024-03-25T14:44:45;16.40;30.50
66190;DHT22;52992;52.084;5.412;2024-03-25T14:47:11;16.20;31.10
66190;DHT22;52992;52.084;5.412;2024-03-25T14:49:37;16.30;31.60
66190;DHT22;52992;52.084;5.412;2024-03-25T14:52:04;16.60;31.60
66190;DHT22;52992;52.084;5.412;2024-03-25T14:54:35;16.90;31.60
66190;DHT22;52992;52.084;5.412;2024-03-25T14:57:01;17.20;30.90
66190;DHT22;52992;52.084;5.412;2024-03-25T14:59:27;17.60;30.50
66190;DHT22;52992;52.084;5.412;2024-03-25T15:01:54;17.90;30.20
66190;DHT22;52992;52.084;5.412;2024-03-25T15:04:20;18.00;30.00
66190;DHT22;52992;52.084;5.412;2024-03-25T15:06:46;18.20;30.00
66190;DHT22;52992;52.084;5.412;2024-03-25T15:09:12;18.40;29.90
66190;DHT22;52992;52.084;5.412;2024-03-25T15:11:38;18.40;30.40
66190;DHT22;52992;52.084;5.412;2024-03-25T15:14:04;18.60;30.50
66190;DHT22;52992;52.084;5.412;2024-03-25T15:16:30;18.60;28.50
66190;DHT22;52992;52.084;5.412;2024-03-25T15:18:56;18.30;28.50
66190;DHT22;52992;52.084;5.412;2024-03-25T15:21:22;18.00;30.00
66190;DHT22;52992;52.084;5.412;2024-03-25T15:23:48;17.80;30.30
66190;DHT22;52992;52.084;5.412;2024-03-25T15:26:14;17.70;29.90
66190;DHT22;52992;52.084;5.412;2024-03-25T15:28:40;17.50;30.00
66190;DHT22;52992;52.084;5.412;2024-03-25T15:31:06;17.40;29.90
66190;DHT22;52992;52.084;5.412;2024-03-25T15:33:32;17.30;30.00
66190;DHT22;52992;52.084;5.412;2024-03-25T15:36:00;17.20;28.80
66190;DHT22;52992;52.084;5.412;2024-03-25T15:38:27;17.00;28.00